Time;durP1;ratioP1;P1;durP2;ratioP2;P2;SDS_P1;SDS_P2;PMS_P1;PMS_P2;Temp;Humidity;BMP_temperature;BMP_pressure;BME280_temperature;BME280_humidity;BME280_pressure;Samples;Min_cycle;Max_cycle;Signal;HPM_P1;HPM_P2
2023/04/10 00:01:25;;;;;;;21.55;10.82;;;2.00;99.90;;;;;;5020191;28;25076;-72
2023/04/10 00:03:52;;;;;;;21.15;9.65;;;1.90;99.90;;;;;;5021779;28;25106;-72
2023/04/10 00:06:20;;;;;;;18.13;9.65;;;1.90;99.90;;;;;;5021807;28;25059;-72
2023/04/10 00:08:47;;;;;;;21.90;10.18;;;1.80;99.90;;;;;;5039497;28;25063;-72
2023/04/10 00:11:15;;;;;;;20.20;10.80;;;1.80;99.90;;;;;;5039312;28;25117;-72
2023/04/10 00:13:42;;;;;;;22.33;11.15;;;1.80;99.90;;;;;;5021472;28;25078;-72
2023/04/10 00:16:10;;;;;;;21.80;11.73;;;1.70;99.90;;;;;;5039758;28;25110;-72
2023/04/10 00:18:37;;;;;;;22.55;10.63;;;1.70;99.90;;;;;;5039239;28;25059;-72
2023/04/10 00:21:05;;;;;;;24.88;11.45;;;1.70;99.90;;;;;;5021725;28;25108;-72
2023/04/10 00:23:33;;;;;;;24.25;10.90;;;1.70;99.90;;;;;;5039439;28;25074;-72
2023/04/10 00:26:01;;;;;;;25.63;11.57;;;1.60;99.90;;;;;;5019264;28;25069;-72
2023/04/10 00:28:29;;;;;;;24.85;11.48;;;1.50;99.90;;;;;;5038969;28;25048;-72
2023/04/10 00:30:56;;;;;;;22.50;11.63;;;1.50;99.90;;;;;;5037208;28;25083;-72
2023/04/10 00:33:24;;;;;;;25.40;12.65;;;1.50;99.90;;;;;;5039437;28;25107;-72
2023/04/10 00:35:51;;;;;;;28.83;13.25;;;1.50;99.90;;;;;;5021166;28;25105;-72
2023/04/10 00:38:20;;;;;;;26.13;13.00;;;1.50;99.90;;;;;;5038659;28;25073;-72
2023/04/10 00:40:47;;;;;;;27.48;12.07;;;1.50;99.90;;;;;;5038887;28;25059;-72
2023/04/10 00:43:18;;;;;;;26.27;12.63;;;1.50;99.90;;;;;;5021152;28;25121;-72
2023/04/10 00:45:46;;;;;;;22.95;11.20;;;1.50;99.90;;;;;;5038580;28;25082;-72
2023/04/10 00:48:14;;;;;;;27.42;10.60;;;1.50;99.90;;;;;;5038616;28;25137;-72
2023/04/10 00:50:41;;;;;;;26.90;12.43;;;1.50;99.90;;;;;;5037464;28;25069;-72
2023/04/10 00:53:09;;;;;;;28.75;13.00;;;1.40;99.90;;;;;;5038356;28;25103;-72
2023/04/10 00:55:36;;;;;;;28.42;12.73;;;1.30;99.90;;;;;;5038391;28;25144;-72
2023/04/10 00:58:03;;;;;;;26.63;13.57;;;1.30;99.90;;;;;;5020804;28;25064;-72
2023/04/10 01:00:31;;;;;;;27.60;13.13;;;1.30;99.90;;;;;;5038770;28;25077;-72
2023/04/10 01:03:00;;;;;;;30.65;13.85;;;1.30;99.90;;;;;;5038548;28;25073;-72
2023/04/10 01:05:41;;;;;;;27.52;12.80;;;1.30;99.90;;;;;;5038227;28;25133;-72
2023/04/10 01:08:39;;;;;;;29.73;13.60;;;1.30;99.90;;;;;;5038283;28;25109;-72
2023/04/10 01:11:27;;;;;;;29.75;14.18;;;1.30;99.90;;;;;;5038200;28;25071;-72
2023/04/10 01:14:09;;;;;;;25.88;11.85;;;1.30;99.90;;;;;;5020151;28;25084;-72
2023/04/10 01:16:48;;;;;;;27.65;12.90;;;1.30;99.90;;;;;;5038812;28;25053;-72
2023/04/10 01:19:25;;;;;;;29.55;13.15;;;1.30;99.90;;;;;;5038043;28;25071;-72
2023/04/10 01:21:54;;;;;;;29.90;12.95;;;1.20;99.90;;;;;;5038509;28;25102;-72
2023/04/10 01:24:39;;;;;;;25.92;12.30;;;1.20;99.90;;;;;;5038249;28;25116;-72
2023/04/10 01:27:25;;;;;;;24.95;11.85;;;1.10;99.90;;;;;;5038635;28;25066;-72
2023/04/10 01:29:55;;;;;;;27.67;13.35;;;1.10;99.90;;;;;;5038320;28;25129;-72
2023/04/10 01:32:24;;;;;;;26.00;13.10;;;1.00;99.90;;;;;;5038381;28;25074;-72
2023/04/10 01:34:53;;;;;;;26.60;13.00;;;1.00;99.90;;;;;;5020090;28;25108;-72
2023/04/10 01:37:30;;;;;;;27.65;12.77;;;0.90;99.90;;;;;;5038168;28;25062;-72
2023/04/10 01:40:08;;;;;;;28.00;13.65;;;0.90;99.90;;;;;;5037566;28;25063;-72
2023/04/10 01:42:47;;;;;;;25.73;13.02;;;0.90;99.90;;;;;;5037648;28;25049;-72
2023/04/10 01:45:20;;;;;;;29.23;13.95;;;0.90;99.90;;;;;;5020026;28;25105;-72
2023/04/10 01:47:48;;;;;;;31.65;14.52;;;0.90;99.90;;;;;;5037669;28;25105;-72
2023/04/10 01:50:16;;;;;;;28.02;13.07;;;0.80;99.90;;;;;;5036776;28;25138;-72
2023/04/10 01:52:45;;;;;;;33.58;14.27;;;0.80;99.90;;;;;;5037353;28;25087;-72
2023/04/10 01:55:14;;;;;;;28.75;14.52;;;0.80;99.90;;;;;;5019661;28;25100;-72
2023/04/10 01:57:41;;;;;;;28.88;13.27;;;0.80;99.90;;;;;;5020119;28;25075;-72
2023/04/10 02:00:09;;;;;;;32.05;13.63;;;0.80;99.90;;;;;;5019688;28;25045;-72
2023/04/10 02:02:36;;;;;;;31.77;14.27;;;0.80;99.90;;;;;;5037492;28;25060;-72
2023/04/10 02:05:04;;;;;;;28.33;13.55;;;0.80;99.90;;;;;;5037026;28;25122;-72
2023/04/10 02:07:54;;;;;;;31.13;15.35;;;0.70;99.90;;;;;;5037212;28;25081;-72
2023/04/10 02:10:30;;;;;;;27.23;13.00;;;0.70;99.90;;;;;;5037032;28;25064;-72
2023/04/10 02:13:06;;;;;;;23.25;12.38;;;0.70;99.90;;;;;;5019452;28;25060;-72
2023/04/10 02:15:36;;;;;;;25.23;12.00;;;0.60;99.90;;;;;;5019332;28;25072;-72
2023/04/10 02:18:05;;;;;;;29.75;13.00;;;0.60;99.90;;;;;;5019338;28;25152;-72
2023/04/10 02:20:32;;;;;;;32.72;14.52;;;0.60;99.90;;;;;;5037069;28;25064;-72
2023/04/10 02:23:02;;;;;;;30.98;13.95;;;0.60;99.90;;;;;;5019338;28;24967;-72
2023/04/10 02:25:33;;;;;;;25.52;11.63;;;0.60;99.90;;;;;;5036111;28;25094;-72
2023/04/10 02:28:07;;;;;;;27.85;13.15;;;0.50;99.90;;;;;;5037863;28;25104;-72
2023/04/10 02:30:34;;;;;;;25.02;12.38;;;0.50;99.90;;;;;;5036943;28;25150;-72
2023/04/10 02:33:02;;;;;;;31.38;13.30;;;0.50;99.90;;;;;;5037253;28;25060;-72
2023/04/10 02:35:29;;;;;;;26.95;13.10;;;0.50;99.90;;;;;;5019104;28;25064;-72
2023/04/10 02:37:56;;;;;;;31.65;14.73;;;0.50;99.90;;;;;;5037157;28;25085;-72
2023/04/10 02:40:24;;;;;;;27.77;13.45;;;0.50;99.90;;;;;;5019136;28;25123;-72
2023/04/10 02:42:51;;;;;;;28.02;13.35;;;0.40;99.90;;;;;;5037101;28;25080;-72
2023/04/10 02:45:18;;;;;;;28.15;13.80;;;0.40;99.90;;;;;;5037073;28;25099;-72
2023/04/10 02:47:45;;;;;;;28.83;12.57;;;0.40;99.90;;;;;;5034577;28;25043;-72
2023/04/10 02:50:13;;;;;;;30.63;13.25;;;0.40;99.90;;;;;;5036456;28;25073;-72
2023/04/10 02:52:40;;;;;;;27.80;13.07;;;0.30;99.90;;;;;;5036299;28;25111;-72
2023/04/10 02:55:08;;;;;;;25.58;12.63;;;0.30;99.90;;;;;;5036298;28;25090;-72
2023/04/10 02:57:36;;;;;;;24.10;11.50;;;0.30;99.90;;;;;;5034351;28;25056;-72
2023/04/10 03:00:05;;;;;;;31.45;13.00;;;0.30;99.90;;;;;;5034355;28;25105;-72
2023/04/10 03:02:33;;;;;;;32.08;13.45;;;0.30;99.90;;;;;;5018854;28;25050;-72
2023/04/10 03:05:04;;;;;;;30.65;14.18;;;0.20;99.90;;;;;;5036311;28;25102;-72
2023/04/10 03:07:32;;;;;;;33.03;12.82;;;0.20;99.90;;;;;;5036840;28;25140;-72
2023/04/10 03:10:00;;;;;;;31.55;14.15;;;0.20;99.90;;;;;;5037031;28;25118;-72
2023/04/10 03:12:27;;;;;;;30.25;13.00;;;0.20;99.90;;;;;;5036392;28;25099;-72
2023/04/10 03:14:54;;;;;;;26.83;11.70;;;0.20;99.90;;;;;;5036149;28;25061;-72
2023/04/10 03:17:22;;;;;;;33.70;14.88;;;0.20;99.90;;;;;;5036781;28;25088;-72
2023/04/10 03:19:49;;;;;;;35.45;15.70;;;0.20;99.90;;;;;;5036141;28;25047;-72
2023/04/10 03:22:16;;;;;;;32.58;14.52;;;0.20;99.90;;;;;;5036845;28;25098;-72
2023/04/10 03:24:44;;;;;;;32.08;15.27;;;0.20;99.90;;;;;;5035927;28;25058;-72
2023/04/10 03:27:11;;;;;;;32.80;14.35;;;0.20;99.90;;;;;;5035329;28;25109;-72
2023/04/10 03:29:38;;;;;;;28.95;13.25;;;0.20;99.90;;;;;;5036038;28;25070;-72
2023/04/10 03:32:06;;;;;;;30.92;14.63;;;0.20;99.90;;;;;;5034228;28;25093;-72
2023/04/10 03:34:34;;;;;;;31.98;13.57;;;0.20;99.90;;;;;;5036122;28;25094;-72
2023/04/10 03:37:02;;;;;;;30.38;14.15;;;0.20;99.90;;;;;;5040266;28;25074;-72
2023/04/10 03:39:29;;;;;;;27.83;13.70;;;0.10;99.90;;;;;;5040094;28;25083;-72
2023/04/10 03:41:57;;;;;;;28.70;13.48;;;0.20;99.90;;;;;;5040301;28;25062;-72
2023/04/10 03:44:25;;;;;;;31.38;14.48;;;0.20;99.90;;;;;;5040359;28;25052;-72
2023/04/10 03:46:52;;;;;;;25.65;12.27;;;0.10;99.90;;;;;;5039748;28;25163;-72
2023/04/10 03:49:19;;;;;;;27.30;13.52;;;0.10;99.90;;;;;;5039702;28;25097;-72
2023/04/10 03:51:46;;;;;;;30.48;14.10;;;0.10;99.90;;;;;;5030798;28;25066;-72
2023/04/10 03:54:13;;;;;;;33.20;13.32;;;0.10;99.90;;;;;;5002433;28;25120;-72
2023/04/10 03:56:41;;;;;;;29.88;13.70;;;0.00;99.90;;;;;;5002318;28;25069;-72
2023/04/10 03:59:08;;;;;;;29.55;13.80;;;0.00;99.90;;;;;;5001541;28;25083;-72
2023/04/10 04:01:35;;;;;;;33.72;13.93;;;0.00;99.90;;;;;;5020409;28;25110;-72
2023/04/10 04:04:02;;;;;;;25.92;14.02;;;0.00;99.90;;;;;;5002229;28;25064;-72
2023/04/10 04:06:30;;;;;;;30.25;14.38;;;0.00;99.90;;;;;;5020147;28;25106;-72
2023/04/10 04:08:57;;;;;;;30.70;14.38;;;0.00;99.90;;;;;;5019456;28;25064;-72
2023/04/10 04:11:24;;;;;;;27.13;12.95;;;0.00;99.90;;;;;;5018397;28;25061;-72
2023/04/10 04:13:52;;;;;;;34.63;14.07;;;0.00;99.90;;;;;;5019350;28;25059;-72
2023/04/10 04:16:20;;;;;;;29.58;12.95;;;0.00;99.90;;;;;;5019424;28;25069;-72
2023/04/10 04:18:47;;;;;;;29.73;13.95;;;0.00;99.90;;;;;;5019279;28;25126;-71
2023/04/10 04:21:14;;;;;;;30.52;14.43;;;0.00;99.90;;;;;;5018832;28;25056;-72
2023/04/10 04:23:42;;;;;;;27.08;12.23;;;0.00;99.90;;;;;;5019210;28;25132;-72
2023/04/10 04:26:09;;;;;;;28.92;13.73;;;-0.10;99.90;;;;;;5019769;28;25064;-72
2023/04/10 04:28:36;;;;;;;27.55;13.23;;;-0.10;99.90;;;;;;5018491;28;25070;-72
2023/04/10 04:31:03;;;;;;;31.00;12.82;;;-0.10;99.90;;;;;;5001729;28;25091;-72
2023/04/10 04:33:30;;;;;;;32.60;13.10;;;-0.10;99.90;;;;;;5001655;28;25054;-72
2023/04/10 04:35:57;;;;;;;31.48;14.15;;;-0.10;99.90;;;;;;5019471;28;25067;-72
2023/04/10 04:38:25;;;;;;;30.70;12.77;;;-0.10;99.90;;;;;;5018918;28;25060;-72
2023/04/10 04:40:52;;;;;;;30.13;13.10;;;-0.10;99.90;;;;;;5019565;28;25089;-72
2023/04/10 04:43:19;;;;;;;26.73;13.07;;;-0.10;99.90;;;;;;5001463;28;25060;-72
2023/04/10 04:45:46;;;;;;;26.15;13.07;;;-0.10;99.90;;;;;;5018922;28;25073;-72
2023/04/10 04:48:14;;;;;;;32.50;14.50;;;-0.10;99.90;;;;;;5000387;28;25065;-72
2023/04/10 04:50:41;;;;;;;24.08;12.43;;;-0.10;99.90;;;;;;5001382;28;25074;-72
2023/04/10 04:53:12;;;;;;;32.28;14.23;;;-0.10;99.90;;;;;;5037934;28;25121;-72
2023/04/10 04:55:40;;;;;;;33.60;14.23;;;-0.10;99.90;;;;;;5020332;28;25094;-72
2023/04/10 04:58:07;;;;;;;29.17;13.93;;;-0.10;99.90;;;;;;5020832;28;25072;-72
2023/04/10 05:00:34;;;;;;;26.15;13.98;;;0.00;99.90;;;;;;5038574;28;25066;-72
2023/04/10 05:03:01;;;;;;;29.23;12.32;;;0.00;99.90;;;;;;5038385;28;25091;-72
2023/04/10 05:05:29;;;;;;;29.65;13.60;;;0.10;99.90;;;;;;5036745;28;25065;-72
2023/04/10 05:07:56;;;;;;;28.80;12.15;;;0.10;99.90;;;;;;5038281;28;25086;-72
2023/04/10 05:10:24;;;;;;;26.65;12.80;;;0.10;99.90;;;;;;5038217;28;25055;-72
2023/04/10 05:12:52;;;;;;;27.20;11.93;;;0.10;99.90;;;;;;5038167;28;25071;-72
2023/04/10 05:15:19;;;;;;;26.73;11.80;;;0.20;99.90;;;;;;5018871;28;25137;-72
2023/04/10 05:17:49;;;;;;;24.40;11.82;;;0.20;99.90;;;;;;5038635;28;25156;-72
2023/04/10 05:20:17;;;;;;;29.73;13.00;;;0.30;99.90;;;;;;5037952;28;25052;-78
2023/04/10 05:22:45;;;;;;;25.63;12.13;;;0.30;99.90;;;;;;5020396;28;25064;-71
2023/04/10 05:25:15;;;;;;;28.55;13.68;;;0.40;99.90;;;;;;5020728;28;25096;-72
2023/04/10 05:27:43;;;;;;;29.58;11.93;;;0.50;99.90;;;;;;5038156;28;25048;-72
2023/04/10 05:30:10;;;;;;;26.88;12.27;;;0.50;99.90;;;;;;5020226;28;25066;-76
2023/04/10 05:32:38;;;;;;;30.02;14.38;;;0.60;99.90;;;;;;5038319;28;25061;-71
2023/04/10 05:35:05;;;;;;;32.58;16.42;;;0.70;99.90;;;;;;5038110;28;25054;-72
2023/04/10 05:37:32;;;;;;;34.72;14.95;;;0.80;99.90;;;;;;5020256;28;25067;-72
2023/04/10 05:40:00;;;;;;;36.03;16.90;;;0.90;99.90;;;;;;5019971;28;25074;-72
2023/04/10 05:42:27;;;;;;;36.53;16.95;;;1.10;99.90;;;;;;5019923;28;25101;-73
2023/04/10 05:44:54;;;;;;;33.15;16.15;;;1.20;99.90;;;;;;5037841;28;25074;-73
2023/04/10 05:47:21;;;;;;;39.42;17.63;;;1.40;99.90;;;;;;5037783;28;25058;-73
2023/04/10 05:49:49;;;;;;;36.00;16.83;;;1.50;99.90;;;;;;5037738;28;25063;-73
2023/04/10 05:52:16;;;;;;;37.58;17.52;;;1.70;99.90;;;;;;5019716;28;25074;-74
2023/04/10 05:54:43;;;;;;;41.65;18.17;;;1.80;99.90;;;;;;5017925;28;25101;-76
2023/04/10 05:57:10;;;;;;;39.83;17.67;;;1.90;99.90;;;;;;5037415;28;25118;-75
2023/04/10 05:59:37;;;;;;;44.28;20.25;;;2.10;99.90;;;;;;5039105;28;25063;-75
2023/04/10 06:02:05;;;;;;;36.85;19.23;;;2.20;99.90;;;;;;5037395;28;25082;-78
2023/04/10 06:04:33;;;;;;;42.35;19.35;;;2.30;99.90;;;;;;5037212;28;25052;-76
2023/04/10 06:07:00;;;;;;;44.22;20.17;;;2.50;99.90;;;;;;5019608;28;25115;-77
2023/04/10 06:09:28;;;;;;;46.72;20.60;;;2.70;99.90;;;;;;5037592;28;25129;-75
2023/04/10 06:11:55;;;;;;;37.10;17.63;;;2.80;99.90;;;;;;5037248;28;25140;-72
2023/04/10 06:14:22;;;;;;;40.20;19.35;;;2.90;99.90;;;;;;5036922;28;25107;-74
2023/04/10 06:16:50;;;;;;;37.92;17.52;;;3.10;99.90;;;;;;5036302;28;25048;-74
2023/04/10 06:19:18;;;;;;;36.70;17.95;;;3.20;99.90;;;;;;5036856;28;25072;-74
2023/04/10 06:21:45;;;;;;;37.85;18.42;;;3.40;99.90;;;;;;5037651;28;25118;-75
2023/04/10 06:24:13;;;;;;;40.42;18.73;;;3.60;99.90;;;;;;5019269;28;25059;-73
2023/04/10 06:26:40;;;;;;;32.20;15.07;;;3.80;99.90;;;;;;5019253;28;25120;-73
2023/04/10 06:29:08;;;;;;;25.50;12.50;;;4.00;99.90;;;;;;5036753;28;25064;-73
2023/04/10 06:31:35;;;;;;;22.63;12.43;;;4.20;99.90;;;;;;5037462;28;25084;-74
2023/04/10 06:34:02;;;;;;;24.75;12.38;;;4.50;99.90;;;;;;5036883;28;25074;-73
2023/04/10 06:36:29;;;;;;;22.95;12.32;;;4.80;99.90;;;;;;5037245;28;25066;-74
2023/04/10 06:38:57;;;;;;;19.52;10.55;;;5.10;99.90;;;;;;5018941;28;25059;-73
2023/04/10 06:41:24;;;;;;;20.50;10.55;;;5.50;99.90;;;;;;5019202;28;25108;-73
2023/04/10 06:43:52;;;;;;;20.63;10.27;;;5.80;99.90;;;;;;5036533;28;25106;-74
2023/04/10 06:46:20;;;;;;;22.20;10.75;;;6.10;99.90;;;;;;5036755;28;25092;-74
2023/04/10 06:48:48;;;;;;;18.40;9.73;;;6.30;99.90;;;;;;5018914;28;25051;-74
2023/04/10 06:51:15;;;;;;;21.25;11.55;;;6.60;99.90;;;;;;5033081;28;25067;-74
2023/04/10 06:53:42;;;;;;;18.90;10.13;;;6.70;99.90;;;;;;5016821;28;25097;-74
2023/04/10 06:56:10;;;;;;;22.65;10.52;;;6.90;99.90;;;;;;5016598;28;25070;-75
2023/04/10 06:58:37;;;;;;;19.77;9.38;;;7.10;99.90;;;;;;5017142;28;25070;-75
2023/04/10 07:01:05;;;;;;;14.60;8.63;;;7.30;99.90;;;;;;5017067;28;25089;-75
2023/04/10 07:03:32;;;;;;;15.32;9.20;;;7.40;99.90;;;;;;5016509;28;25211;-75
2023/04/10 07:06:01;;;;;;;14.77;9.00;;;7.60;99.90;;;;;;4999064;28;25086;-75
2023/04/10 07:08:29;;;;;;;17.67;9.20;;;7.70;99.90;;;;;;5016427;28;25061;-75
2023/04/10 07:10:56;;;;;;;14.77;8.88;;;7.90;99.90;;;;;;5016166;28;25064;-75
2023/04/10 07:13:24;;;;;;;17.27;9.73;;;7.90;99.90;;;;;;4998585;28;25107;-75
2023/04/10 07:15:51;;;;;;;18.45;9.65;;;8.00;99.90;;;;;;5016725;28;25084;-75
2023/04/10 07:18:18;;;;;;;16.80;9.02;;;8.10;99.90;;;;;;4998764;28;25077;-74
2023/04/10 07:20:47;;;;;;;15.38;9.18;;;8.20;99.90;;;;;;5016431;28;25138;-74
2023/04/10 07:23:14;;;;;;;14.15;8.55;;;8.30;99.90;;;;;;5016590;28;25108;-75
2023/04/10 07:25:43;;;;;;;17.67;8.35;;;8.40;99.90;;;;;;4998504;28;25096;-75
2023/04/10 07:28:11;;;;;;;18.33;9.30;;;8.50;99.90;;;;;;5016804;28;25113;-74
2023/04/10 07:30:38;;;;;;;16.05;8.68;;;8.60;99.90;;;;;;5016472;28;25109;-75
2023/04/10 07:33:05;;;;;;;17.80;9.48;;;8.60;99.90;;;;;;4998769;28;25088;-75
2023/04/10 07:35:32;;;;;;;17.60;8.88;;;8.60;99.90;;;;;;4998870;28;25066;-75
2023/04/10 07:38:00;;;;;;;15.73;8.82;;;8.60;99.90;;;;;;4998200;28;25071;-78
2023/04/10 07:40:27;;;;;;;15.20;9.40;;;8.70;99.90;;;;;;5016109;28;25067;-75
2023/04/10 07:42:55;;;;;;;15.45;8.93;;;8.70;99.90;;;;;;5016408;28;25085;-75
2023/04/10 07:45:22;;;;;;;18.88;8.70;;;8.80;99.90;;;;;;4998889;28;25062;-75
2023/04/10 07:47:50;;;;;;;12.55;8.13;;;8.80;99.90;;;;;;4998019;28;25070;-76
2023/04/10 07:50:17;;;;;;;16.40;9.10;;;8.90;99.90;;;;;;5016396;28;25061;-76
2023/04/10 07:52:45;;;;;;;15.73;9.00;;;8.90;99.90;;;;;;5031721;28;25089;-74
2023/04/10 07:55:16;;;;;;;16.48;8.10;;;8.90;99.90;;;;;;5034381;28;25067;-75
2023/04/10 07:57:43;;;;;;;14.40;8.52;;;9.00;99.90;;;;;;5018273;28;25075;-75
2023/04/10 08:00:11;;;;;;;16.38;8.68;;;9.10;99.90;;;;;;5036320;28;25104;-74
2023/04/10 08:02:42;;;;;;;16.40;7.88;;;9.20;99.90;;;;;;5035695;28;25152;-74
2023/04/10 08:05:10;;;;;;;15.52;8.07;;;9.30;99.90;;;;;;5035672;28;25072;-75
2023/04/10 08:07:37;;;;;;;14.25;8.57;;;9.40;99.90;;;;;;5036352;28;25064;-75
2023/04/10 08:10:04;;;;;;;13.20;7.97;;;9.50;99.90;;;;;;5018071;28;25080;-75
2023/04/10 08:12:33;;;;;;;17.25;8.70;;;9.50;99.90;;;;;;5035714;28;25131;-75
2023/04/10 08:15:00;;;;;;;12.80;7.55;;;9.60;99.90;;;;;;5036081;28;25076;-74
2023/04/10 08:17:27;;;;;;;11.55;7.18;;;9.70;99.90;;;;;;5036198;28;25066;-74
2023/04/10 08:19:55;;;;;;;11.93;7.22;;;9.90;99.90;;;;;;5017975;28;25114;-75
2023/04/10 08:22:22;;;;;;;11.98;7.50;;;10.00;99.90;;;;;;5037016;28;25057;-75
2023/04/10 08:24:50;;;;;;;12.80;7.55;;;10.00;99.90;;;;;;5039080;28;25055;-75
2023/04/10 08:27:17;;;;;;;15.13;7.95;;;10.10;99.90;;;;;;5039349;28;25154;-76
2023/04/10 08:29:45;;;;;;;11.57;7.47;;;10.20;99.90;;;;;;5039047;28;25113;-75
2023/04/10 08:32:12;;;;;;;12.65;7.20;;;10.30;99.90;;;;;;5039073;28;25073;-74
2023/04/10 08:34:40;;;;;;;15.15;7.03;;;10.40;99.90;;;;;;5038850;28;25059;-75
2023/04/10 08:37:08;;;;;;;14.10;6.97;;;10.50;99.90;;;;;;5038868;28;25058;-75
2023/04/10 08:39:36;;;;;;;14.15;7.65;;;10.60;99.90;;;;;;5038771;28;25064;-74
2023/04/10 08:42:03;;;;;;;13.88;7.13;;;10.70;99.90;;;;;;5038983;28;25061;-75
2023/04/10 08:44:31;;;;;;;14.60;7.63;;;10.80;99.90;;;;;;5039002;28;25067;-74
2023/04/10 08:47:00;;;;;;;15.45;7.55;;;10.90;99.90;;;;;;5038711;28;25048;-74
2023/04/10 08:50:03;;;;;;;13.45;7.40;;;11.00;99.90;;;;;;5038549;28;25060;-74
2023/04/10 08:52:34;;;;;;;15.23;7.75;;;11.10;99.90;;;;;;5024712;28;25060;-74
2023/04/10 08:55:07;;;;;;;12.68;7.72;;;11.20;99.90;;;;;;5018584;28;25123;-75
2023/04/10 08:57:37;;;;;;;12.38;7.38;;;11.20;99.90;;;;;;5018683;28;25061;-75
2023/04/10 09:00:05;;;;;;;11.02;6.28;;;11.30;99.90;;;;;;5018622;28;25064;-75
2023/04/10 09:02:33;;;;;;;13.38;7.00;;;11.40;99.90;;;;;;5018550;28;25074;-74
2023/04/10 09:05:02;;;;;;;13.18;7.70;;;11.50;99.90;;;;;;5018722;28;25069;-74
2023/04/10 09:07:30;;;;;;;12.95;6.88;;;11.50;99.90;;;;;;5018426;28;25066;-74
2023/04/10 09:09:58;;;;;;;12.40;7.43;;;11.60;99.90;;;;;;5018470;28;25077;-74
2023/04/10 09:12:26;;;;;;;11.57;7.22;;;11.70;99.90;;;;;;5018774;28;25059;-74
2023/04/10 09:14:56;;;;;;;12.05;6.57;;;11.70;99.90;;;;;;5018196;28;25078;-74
2023/04/10 09:17:24;;;;;;;13.07;7.45;;;11.90;99.90;;;;;;5018901;28;25131;-74
2023/04/10 09:19:55;;;;;;;9.27;5.85;;;12.00;99.90;;;;;;5018840;28;25094;-74
2023/04/10 09:22:35;;;;;;;11.73;6.88;;;12.10;99.90;;;;;;5000990;28;25075;-74
2023/04/10 09:25:04;;;;;;;13.32;7.50;;;12.30;99.90;;;;;;5000772;28;25078;-74
2023/04/10 09:27:34;;;;;;;12.70;7.20;;;12.40;99.90;;;;;;5018371;28;25067;-74
2023/04/10 09:30:03;;;;;;;12.68;6.53;;;12.50;99.90;;;;;;5018361;28;25115;-74
2023/04/10 09:32:40;;;;;;;9.32;6.22;;;12.60;99.80;;;;;;5018094;28;25071;-74
2023/04/10 09:35:09;;;;;;;8.70;5.72;;;12.80;98.40;;;;;;5000401;28;25070;-74
2023/04/10 09:37:39;;;;;;;9.82;6.28;;;13.00;97.90;;;;;;5018178;28;25057;-74
2023/04/10 09:40:20;;;;;;;11.40;6.05;;;13.10;96.70;;;;;;5017851;28;25057;-74
2023/04/10 09:42:48;;;;;;;10.48;5.72;;;13.20;96.20;;;;;;5017781;28;25060;-74
2023/04/10 09:45:19;;;;;;;9.07;6.00;;;13.30;95.30;;;;;;5018231;28;25084;-74
2023/04/10 09:48:04;;;;;;;9.15;6.07;;;13.40;94.90;;;;;;5017660;28;25083;-74
2023/04/10 09:50:40;;;;;;;10.82;6.05;;;13.50;94.30;;;;;;5018592;28;25051;-74
2023/04/10 09:53:15;;;;;;;10.40;6.55;;;13.50;92.10;;;;;;5036099;28;25079;-74
2023/04/10 09:55:43;;;;;;;10.65;5.43;;;13.50;92.20;;;;;;5037387;28;25058;-74
2023/04/10 09:58:11;;;;;;;9.18;6.07;;;13.50;91.80;;;;;;5019773;28;25060;-74
2023/04/10 10:00:45;;;;;;;8.70;6.22;;;13.50;90.90;;;;;;5037147;28;25091;-75
2023/04/10 10:03:18;;;;;;;11.25;5.60;;;13.50;90.80;;;;;;5037308;28;25049;-75
2023/04/10 10:05:50;;;;;;;12.38;6.22;;;13.60;90.40;;;;;;5037321;28;25077;-74
2023/04/10 10:08:18;;;;;;;12.65;6.45;;;13.60;90.00;;;;;;5037174;28;25150;-74
2023/04/10 10:10:54;;;;;;;14.13;8.30;;;13.70;89.40;;;;;;5037105;28;25066;-73
2023/04/10 10:13:38;;;;;;;11.68;6.43;;;13.80;90.10;;;;;;5037119;28;25062;-73
2023/04/10 10:16:32;;;;;;;10.45;6.35;;;13.80;90.60;;;;;;5037269;28;25095;-74
2023/04/10 10:19:09;;;;;;;7.80;5.20;;;13.90;88.10;;;;;;5037132;28;25066;-73
2023/04/10 10:21:39;;;;;;;12.68;6.30;;;13.90;88.10;;;;;;5036616;28;25159;-74
2023/04/10 10:24:10;;;;;;;8.63;5.43;;;14.00;85.50;;;;;;5019159;28;25076;-74
2023/04/10 10:26:39;;;;;;;11.23;5.68;;;14.00;86.20;;;;;;5037440;28;25129;-73
2023/04/10 10:29:12;;;;;;;7.82;5.35;;;14.10;85.60;;;;;;5019181;28;25116;-74
2023/04/10 10:31:40;;;;;;;11.68;5.93;;;14.20;84.20;;;;;;5036991;28;25107;-74
2023/04/10 10:34:08;;;;;;;11.73;6.45;;;14.30;84.50;;;;;;5036574;28;25053;-73
2023/04/10 10:36:36;;;;;;;9.85;6.00;;;14.40;82.80;;;;;;5036855;28;25107;-73
2023/04/10 10:39:21;;;;;;;7.57;5.10;;;14.60;82.50;;;;;;5036600;28;25099;-73
2023/04/10 10:42:34;;;;;;;7.40;4.80;;;14.60;81.20;;;;;;5036438;28;25120;-74
2023/04/10 10:45:23;;;;;;;10.82;6.38;;;14.70;82.30;;;;;;5016239;28;25054;-73
2023/04/10 10:47:54;;;;;;;10.15;5.00;;;14.80;83.40;;;;;;5037125;28;25134;-73
2023/04/10 10:50:25;;;;;;;7.18;4.63;;;15.10;78.90;;;;;;5037107;28;25119;-72
2023/04/10 10:52:54;;;;;;;10.15;4.72;;;15.20;77.40;;;;;;5036423;28;25102;-72
2023/04/10 10:55:35;;;;;;;6.97;4.63;;;15.30;77.40;;;;;;5037007;28;25112;-72
2023/04/10 10:58:11;;;;;;;7.82;4.82;;;15.50;76.10;;;;;;5036284;28;25135;-73
2023/04/10 11:00:50;;;;;;;6.35;4.07;;;15.60;75.50;;;;;;5036560;28;25048;-72
2023/04/10 11:03:17;;;;;;;6.75;4.35;;;15.70;73.10;;;;;;5036873;28;25078;-72
2023/04/10 11:06:03;;;;;;;8.45;4.93;;;15.80;71.90;;;;;;5036907;28;25118;-71
2023/04/10 11:08:46;;;;;;;6.57;4.50;;;15.90;72.20;;;;;;5036787;28;25059;-72
2023/04/10 11:11:22;;;;;;;7.63;4.25;;;15.90;72.20;;;;;;5036941;28;25086;-72
2023/04/10 11:13:56;;;;;;;6.65;4.15;;;16.10;71.70;;;;;;5036216;28;25074;-72
2023/04/10 11:16:34;;;;;;;7.53;4.80;;;16.20;71.20;;;;;;5036476;28;25095;-72
2023/04/10 11:19:11;;;;;;;6.75;3.53;;;16.40;70.80;;;;;;5036472;28;25061;-72
2023/04/10 11:22:15;;;;;;;6.80;4.10;;;16.60;70.00;;;;;;5036265;28;25054;-72
2023/04/10 11:25:00;;;;;;;6.18;4.22;;;16.70;68.70;;;;;;4956084;28;25077;-72
2023/04/10 11:27:43;;;;;;;5.97;4.45;;;16.90;67.20;;;;;;5030422;28;25092;-72
2023/04/10 11:30:26;;;;;;;4.80;3.42;;;17.00;67.40;;;;;;5036156;28;25055;-72
2023/04/10 11:32:55;;;;;;;6.57;4.50;;;17.20;67.70;;;;;;5018459;28;25074;-73
2023/04/10 11:35:23;;;;;;;6.10;3.63;;;17.30;67.10;;;;;;5017529;28;25065;-72
2023/04/10 11:37:51;;;;;;;6.88;4.00;;;17.40;65.40;;;;;;5035931;28;25079;-71
2023/04/10 11:40:20;;;;;;;6.53;4.22;;;17.50;67.30;;;;;;5036039;28;25085;-71
2023/04/10 11:42:48;;;;;;;6.45;3.88;;;17.70;63.90;;;;;;5035989;28;25050;-71
2023/04/10 11:45:26;;;;;;;7.75;4.78;;;17.80;63.80;;;;;;5018455;28;25055;-71
2023/04/10 11:47:54;;;;;;;6.05;4.50;;;17.80;64.00;;;;;;5018203;28;25073;-71
2023/04/10 11:50:21;;;;;;;7.05;4.60;;;17.90;63.90;;;;;;5036077;28;25087;-72
2023/04/10 11:52:53;;;;;;;7.47;4.20;;;18.00;63.80;;;;;;5035880;28;25071;-71
2023/04/10 11:55:37;;;;;;;6.05;4.18;;;18.10;64.80;;;;;;5035747;28;25070;-72
2023/04/10 11:58:04;;;;;;;5.55;3.80;;;18.10;65.10;;;;;;5022421;28;25111;-71
2023/04/10 12:00:31;;;;;;;5.18;4.07;;;18.30;65.10;;;;;;5039627;28;25140;-71
2023/04/10 12:02:59;;;;;;;7.25;3.72;;;18.40;63.80;;;;;;5039582;28;25068;-71
2023/04/10 12:05:26;;;;;;;6.25;3.88;;;18.50;62.70;;;;;;5039411;28;25141;-72
2023/04/10 12:07:54;;;;;;;6.65;4.50;;;18.50;63.30;;;;;;5021897;28;25101;-72
2023/04/10 12:10:22;;;;;;;4.65;3.55;;;18.60;62.70;;;;;;5039391;28;25098;-73
2023/04/10 12:12:50;;;;;;;6.32;4.07;;;18.70;62.40;;;;;;5039794;28;25074;-82
2023/04/10 12:15:28;;;;;;;5.60;3.92;;;18.80;63.00;;;;;;5039321;28;25074;-72
2023/04/10 12:17:55;;;;;;;8.73;5.35;;;19.00;61.20;;;;;;5039601;28;25071;-71
2023/04/10 12:20:26;;;;;;;5.70;3.90;;;19.00;61.00;;;;;;5039360;28;25120;-71
2023/04/10 12:22:56;;;;;;;6.78;4.03;;;19.10;60.90;;;;;;5040104;28;25070;-72
2023/04/10 12:25:23;;;;;;;4.43;3.58;;;19.20;60.60;;;;;;5039965;28;25069;-71
2023/04/10 12:27:50;;;;;;;6.10;3.90;;;19.30;61.10;;;;;;5039308;28;25080;-85
2023/04/10 12:30:17;;;;;;;6.72;4.60;;;19.40;61.20;;;;;;5021952;28;25143;-71
2023/04/10 12:32:55;;;;;;;6.28;4.18;;;19.30;61.00;;;;;;5039032;28;25060;-71
2023/04/10 12:35:44;;;;;;;6.05;4.00;;;19.40;61.40;;;;;;5039312;28;25070;-72
2023/04/10 12:38:12;;;;;;;9.88;4.80;;;19.40;61.70;;;;;;5039162;28;25065;-72
2023/04/10 12:41:03;;;;;;;7.35;3.90;;;19.50;61.60;;;;;;5021320;28;25069;-72
2023/04/10 12:43:35;;;;;;;5.28;3.95;;;19.70;61.50;;;;;;5021321;28;25113;-71
2023/04/10 12:46:04;;;;;;;6.47;4.05;;;19.70;59.70;;;;;;5039065;28;25057;-72
2023/04/10 12:48:32;;;;;;;6.28;4.68;;;19.70;60.20;;;;;;5038743;28;25119;-72
2023/04/10 12:50:59;;;;;;;7.22;4.65;;;19.80;60.00;;;;;;5037793;28;25080;-71
2023/04/10 12:53:27;;;;;;;5.63;4.50;;;19.80;61.30;;;;;;5018571;28;25068;-70
2023/04/10 12:56:08;;;;;;;5.28;4.10;;;19.90;60.00;;;;;;5018719;28;25104;-71